Time;durP1;ratioP1;P1;durP2;ratioP2;P2;SDS_P1;SDS_P2;PMS_P1;PMS_P2;Temp;Humidity;BMP_temperature;BMP_pressure;BME280_temperature;BME280_humidity;BME280_pressure;Samples;Min_cycle;Max_cycle;Signal;HPM_P1;HPM_P2
2022/06/20 00:00:22;;;;;;;10.10;4.50;;;23.60;78.60;;;;;;4984176;28;20019;-83
2022/06/20 00:02:54;;;;;;;15.82;5.38;;;23.60;78.60;;;;;;4988517;28;20099;-84
2022/06/20 00:05:24;;;;;;;8.98;4.38;;;23.60;78.50;;;;;;4975282;28;20026;-83
2022/06/20 00:07:50;;;;;;;;;;;23.70;78.50;;;;;;4977751;28;20075;-83
2022/06/20 00:10:19;;;;;;;11.63;4.75;;;23.70;78.70;;;;;;4985773;28;19906;-82
2022/06/20 00:12:47;;;;;;;11.82;4.45;;;23.70;78.50;;;;;;4973457;28;20031;-83
2022/06/20 00:15:21;;;;;;;10.10;3.97;;;23.70;78.40;;;;;;4969736;28;20035;-82
2022/06/20 00:17:47;;;;;;;9.75;4.40;;;23.80;78.40;;;;;;4967126;28;20042;-83
2022/06/20 00:20:15;;;;;;;9.23;4.65;;;23.70;78.50;;;;;;4966693;28;20023;-84
2022/06/20 00:22:41;;;;;;;13.88;4.22;;;23.70;78.50;;;;;;4988686;28;20041;-82
2022/06/20 00:25:07;;;;;;;9.82;4.30;;;23.70;78.50;;;;;;4976499;28;20114;-84
2022/06/20 00:27:33;;;;;;;11.40;4.38;;;23.80;78.60;;;;;;4970646;28;20031;-83
2022/06/20 00:30:04;;;;;;;8.45;4.25;;;23.80;78.60;;;;;;4991231;28;20042;-84
2022/06/20 00:32:30;;;;;;;9.02;3.90;;;23.70;78.60;;;;;;4980013;28;20019;-85
2022/06/20 00:34:56;;;;;;;10.20;4.28;;;23.80;78.70;;;;;;4994850;28;20114;-85
2022/06/20 00:37:21;;;;;;;11.23;4.53;;;23.80;78.70;;;;;;4978043;28;20050;-84
2022/06/20 00:39:49;;;;;;;13.25;4.82;;;23.80;79.20;;;;;;4976922;28;20039;-84
2022/06/20 00:42:16;;;;;;;9.15;4.57;;;23.70;79.30;;;;;;4998181;28;20007;-83
2022/06/20 00:44:46;;;;;;;14.02;4.85;;;23.70;79.50;;;;;;5002690;28;20027;-85
2022/06/20 00:47:27;;;;;;;9.88;4.45;;;23.70;79.90;;;;;;4973689;28;20420;-82
2022/06/20 00:49:56;;;;;;;10.60;4.40;;;23.70;79.60;;;;;;4969196;28;20083;-83
2022/06/20 00:52:33;;;;;;;15.35;4.63;;;23.80;79.40;;;;;;4963669;28;20031;-81
2022/06/20 00:55:15;;;;;;;10.57;4.57;;;24.10;78.30;;;;;;4990441;28;20033;-81
2022/06/20 00:57:50;;;;;;;12.85;5.80;;;24.00;78.20;;;;;;4987518;28;20042;-81
2022/06/20 01:00:23;;;;;;;13.57;4.68;;;24.00;78.30;;;;;;4982474;28;20034;-81
2022/06/20 01:02:53;;;;;;;14.05;5.00;;;24.00;78.40;;;;;;4984469;28;20031;-83
2022/06/20 01:05:35;;;;;;;11.70;5.38;;;24.00;78.00;;;;;;4968938;28;20241;-81
2022/06/20 01:08:28;;;;;;;14.52;4.80;;;23.80;78.00;;;;;;4978420;28;20039;-83
2022/06/20 01:11:12;;;;;;;13.70;4.72;;;23.80;78.70;;;;;;4966031;28;20030;-81
2022/06/20 01:13:37;;;;;;;8.18;4.03;;;23.60;78.60;;;;;;4958884;28;20027;-82
2022/06/20 01:16:12;;;;;;;11.15;3.58;;;23.50;78.70;;;;;;4961687;28;20029;-83
2022/06/20 01:18:40;;;;;;;16.33;4.22;;;23.50;78.70;;;;;;4968442;28;20027;-81
2022/06/20 01:21:12;;;;;;;9.13;4.05;;;23.30;79.40;;;;;;4984143;28;20027;-82
2022/06/20 01:23:46;;;;;;;10.88;4.20;;;23.30;79.50;;;;;;4984938;28;20026;-83
2022/06/20 01:26:35;;;;;;;13.30;5.55;;;23.20;79.80;;;;;;4965664;28;20018;-85
2022/06/20 01:29:05;;;;;;;12.60;3.88;;;23.00;80.20;;;;;;4997160;28;20015;-84
2022/06/20 01:31:36;;;;;;;12.70;4.30;;;23.00;80.30;;;;;;4973899;28;20239;-86
2022/06/20 01:34:03;;;;;;;9.63;3.78;;;22.90;80.50;;;;;;4965386;28;20030;-84
2022/06/20 01:39:18;;;;;;;13.20;4.13;;;22.80;80.80;;;;;;4981497;28;20109;-84
2022/06/20 01:44:37;;;;;;;14.32;4.18;;;22.90;80.20;;;;;;4988356;28;20180;-82
2022/06/20 01:47:03;;;;;;;10.85;3.58;;;22.80;79.80;;;;;;4979333;28;20121;-81
2022/06/20 01:49:31;;;;;;;11.57;3.50;;;22.70;80.10;;;;;;4963400;28;20027;-81
2022/06/20 01:52:39;;;;;;;9.23;3.90;;;22.60;80.60;;;;;;4983428;28;20535;-80
2022/06/20 01:55:14;;;;;;;14.75;4.20;;;22.50;81.00;;;;;;4975644;28;20031;-81
2022/06/20 01:57:42;;;;;;;15.65;5.45;;;22.40;80.70;;;;;;4956836;28;20022;-81
2022/06/20 02:00:16;;;;;;;10.68;3.50;;;22.40;80.50;;;;;;4982999;28;20639;-80
2022/06/20 02:02:47;;;;;;;13.38;3.03;;;22.20;81.00;;;;;;4965526;28;20023;-81
2022/06/20 02:05:17;;;;;;;10.73;3.33;;;22.00;81.80;;;;;;4981427;28;20058;-81
2022/06/20 02:07:43;;;;;;;13.35;3.75;;;21.80;82.10;;;;;;4967002;28;20038;-81
2022/06/20 02:10:14;;;;;;;8.25;3.20;;;21.80;82.50;;;;;;4958967;28;20038;-81
2022/06/20 02:12:40;;;;;;;9.40;3.38;;;21.70;82.80;;;;;;4982051;28;20086;-81
2022/06/20 02:15:07;;;;;;;12.60;3.65;;;22.00;81.80;;;;;;4965981;28;20066;-81
2022/06/20 02:17:37;;;;;;;12.68;4.10;;;22.00;81.90;;;;;;4965247;28;20038;-81
2022/06/20 02:20:09;;;;;;;10.80;3.47;;;21.80;82.60;;;;;;4983373;28;20109;-83
2022/06/20 02:22:36;;;;;;;11.15;3.55;;;21.80;82.60;;;;;;4994888;28;20019;-82
2022/06/20 02:25:10;;;;;;;8.52;3.33;;;21.70;83.10;;;;;;4992219;28;20033;-82
2022/06/20 02:27:49;;;;;;;11.48;3.47;;;21.60;83.60;;;;;;4968834;28;20105;-79
2022/06/20 02:30:15;;;;;;;13.75;3.80;;;21.70;83.40;;;;;;4983915;28;20091;-83
2022/06/20 02:32:46;;;;;;;9.93;3.00;;;21.70;83.20;;;;;;4984460;28;20090;-81
2022/06/20 02:35:16;;;;;;;8.98;3.30;;;21.60;83.50;;;;;;4977247;28;20055;-81
2022/06/20 02:37:43;;;;;;;8.60;3.00;;;21.60;84.00;;;;;;4965376;28;20089;-81
2022/06/20 02:40:13;;;;;;;8.15;3.20;;;21.50;84.40;;;;;;4963515;28;20023;-81
2022/06/20 02:42:52;;;;;;;8.93;3.58;;;21.40;84.70;;;;;;4983112;28;20022;-82
2022/06/20 02:45:18;;;;;;;9.40;3.10;;;21.40;85.20;;;;;;4981582;28;20031;-81
2022/06/20 02:47:51;;;;;;;11.95;3.47;;;21.40;85.30;;;;;;4964883;28;20031;-82
2022/06/20 02:50:22;;;;;;;11.15;3.38;;;21.20;86.00;;;;;;4975576;28;20039;-82
2022/06/20 02:53:20;;;;;;;11.77;3.40;;;21.20;86.40;;;;;;4957269;28;20058;-82
2022/06/20 02:55:47;;;;;;;9.90;3.42;;;21.20;86.60;;;;;;4957611;28;20362;-81
2022/06/20 02:58:21;;;;;;;14.52;4.95;;;21.30;86.50;;;;;;4963839;28;20031;-82
2022/06/20 03:00:52;;;;;;;10.07;3.38;;;21.40;86.30;;;;;;4975609;28;20030;-85
2022/06/20 03:03:36;;;;;;;8.93;3.35;;;21.30;86.30;;;;;;4959682;28;20476;-83
2022/06/20 03:06:09;;;;;;;10.43;3.70;;;21.20;86.70;;;;;;4965797;28;20026;-80
2022/06/20 03:08:35;;;;;;;9.13;3.85;;;21.20;86.90;;;;;;4979526;28;20035;-82
2022/06/20 03:11:04;;;;;;;6.43;3.30;;;21.20;87.40;;;;;;4961971;28;20041;-80
2022/06/20 03:13:32;;;;;;;9.48;3.60;;;21.20;87.80;;;;;;4972391;28;20500;-82
2022/06/20 03:16:01;;;;;;;6.70;3.15;;;21.20;87.80;;;;;;4964619;28;20574;-81
2022/06/20 03:18:28;;;;;;;7.53;3.50;;;21.20;87.80;;;;;;4963263;28;20063;-82
2022/06/20 03:20:54;;;;;;;6.65;3.38;;;21.30;88.10;;;;;;4984965;28;20031;-80
2022/06/20 03:23:25;;;;;;;10.88;3.00;;;21.30;88.10;;;;;;4968569;28;20484;-82
2022/06/20 03:25:53;;;;;;;9.73;3.30;;;21.30;88.00;;;;;;4974858;28;20041;-83
2022/06/20 03:28:21;;;;;;;11.32;3.40;;;21.30;88.40;;;;;;4987579;28;20026;-82
2022/06/20 03:30:48;;;;;;;9.48;3.88;;;21.30;88.40;;;;;;4987154;28;20027;-82
2022/06/20 03:33:16;;;;;;;11.13;3.20;;;21.30;88.40;;;;;;4988000;28;20034;-82
2022/06/20 03:35:48;;;;;;;9.30;3.03;;;21.30;88.80;;;;;;4985601;28;20026;-82
2022/06/20 03:38:15;;;;;;;8.07;3.03;;;21.30;88.80;;;;;;4969704;28;20023;-82
2022/06/20 03:40:41;;;;;;;12.35;3.60;;;21.20;89.00;;;;;;4973690;28;20023;-81
2022/06/20 03:43:09;;;;;;;13.05;3.70;;;21.20;89.30;;;;;;4988926;28;20030;-82
2022/06/20 03:45:39;;;;;;;9.70;3.55;;;21.10;89.70;;;;;;4966334;28;20050;-82
2022/06/20 03:48:27;;;;;;;12.73;4.90;;;21.10;90.00;;;;;;4964067;28;20033;-81
2022/06/20 03:51:04;;;;;;;10.00;3.42;;;21.30;90.00;;;;;;4965389;28;20034;-80
2022/06/20 03:53:29;;;;;;;12.57;4.03;;;21.30;89.30;;;;;;4971602;28;20031;-81
2022/06/20 03:56:06;;;;;;;10.00;3.40;;;21.40;89.20;;;;;;4974948;28;20109;-82
2022/06/20 03:58:40;;;;;;;9.95;3.03;;;21.40;89.80;;;;;;4961670;28;20030;-82
2022/06/20 04:01:18;;;;;;;10.57;3.17;;;21.30;89.60;;;;;;4954307;28;20027;-82
2022/06/20 04:03:49;;;;;;;10.65;4.10;;;21.40;89.60;;;;;;4971522;28;20030;-82
2022/06/20 04:06:19;;;;;;;9.13;3.45;;;21.40;89.50;;;;;;4955808;28;20507;-82
2022/06/20 04:11:47;;;;;;;12.38;3.95;;;21.40;89.90;;;;;;4990506;28;19917;-88
2022/06/20 04:14:20;;;;;;;8.95;3.80;;;21.40;90.00;;;;;;5000442;28;20027;-89
2022/06/20 04:16:54;;;;;;;10.18;3.30;;;21.40;90.00;;;;;;4999147;28;20023;-86
2022/06/20 04:19:36;;;;;;;8.85;3.20;;;21.40;90.00;;;;;;4997371;28;20507;-88
2022/06/20 04:22:20;;;;;;;8.70;3.53;;;21.50;90.10;;;;;;5003189;28;20034;-89
2022/06/20 04:24:46;;;;;;;9.57;3.30;;;21.30;90.20;;;;;;4995749;28;20050;-89
2022/06/20 04:27:24;;;;;;;13.13;3.33;;;21.40;90.30;;;;;;4981947;28;20054;-89
2022/06/20 04:29:57;;;;;;;11.77;3.40;;;21.30;90.20;;;;;;5001172;28;20485;-87
2022/06/20 04:32:47;;;;;;;9.48;3.03;;;21.40;90.10;;;;;;4991246;28;20034;-84
2022/06/20 04:35:18;;;;;;;9.70;3.22;;;21.40;90.20;;;;;;5002060;28;20041;-87
2022/06/20 04:37:53;;;;;;;5.35;3.08;;;21.30;90.40;;;;;;5008215;28;20042;-86
2022/06/20 04:40:32;;;;;;;11.65;3.90;;;21.10;90.80;;;;;;5010100;28;20046;-85
2022/06/20 04:43:26;;;;;;;10.43;3.28;;;21.10;91.20;;;;;;4989203;28;20039;-88
2022/06/20 04:46:03;;;;;;;11.57;3.50;;;21.20;91.20;;;;;;4989686;28;20031;-84
2022/06/20 04:48:29;;;;;;;8.35;3.55;;;21.20;91.20;;;;;;5007749;28;20086;-86
2022/06/20 04:50:59;;;;;;;9.80;3.83;;;21.40;91.30;;;;;;5010523;28;20034;-88
2022/06/20 04:53:29;;;;;;;9.05;3.47;;;21.60;91.10;;;;;;5005495;28;20018;-88
2022/06/20 04:55:58;;;;;;;9.90;3.40;;;21.70;90.40;;;;;;5013352;28;20027;-87
2022/06/20 04:58:58;;;;;;;15.60;4.43;;;21.50;91.40;;;;;;4995929;28;20038;-89
2022/06/20 05:01:26;;;;;;;16.98;5.20;;;21.40;96.40;;;;;;4990807;28;20040;-88
2022/06/20 05:04:03;;;;;;;16.50;4.85;;;20.80;97.60;;;;;;5006825;28;20038;-87
2022/06/20 05:06:31;;;;;;;15.15;5.22;;;20.30;98.90;;;;;;5007312;28;20037;-87
2022/06/20 05:09:07;;;;;;;12.18;4.90;;;20.00;99.90;;;;;;4990567;28;20022;-89
2022/06/20 05:11:42;;;;;;;12.85;5.30;;;19.90;99.90;;;;;;4987871;28;20047;-88
2022/06/20 05:14:28;;;;;;;11.55;4.68;;;19.80;99.90;;;;;;4992324;28;20031;-89
2022/06/20 05:16:55;;;;;;;15.88;4.10;;;19.80;99.90;;;;;;4982827;28;20037;-89
2022/06/20 05:19:29;;;;;;;12.57;4.78;;;19.80;99.90;;;;;;4983515;28;20023;-89
2022/06/20 05:22:00;;;;;;;14.73;5.35;;;20.00;99.90;;;;;;5007388;28;20095;-89
2022/06/20 05:24:38;;;;;;;12.95;5.10;;;20.10;99.90;;;;;;4999126;28;20018;-88
2022/06/20 05:27:13;;;;;;;19.27;6.25;;;20.10;99.90;;;;;;4997625;28;20035;-89
2022/06/20 05:29:43;;;;;;;13.65;4.57;;;20.20;99.90;;;;;;4994206;28;20058;-88
2022/06/20 05:32:13;;;;;;;8.88;3.92;;;20.20;99.90;;;;;;4994992;28;20027;-88
2022/06/20 05:34:55;;;;;;;11.05;4.22;;;19.30;99.90;;;;;;4990676;28;20099;-88
2022/06/20 05:37:26;;;;;;;13.50;4.03;;;20.40;99.90;;;;;;5010009;28;20046;-88
2022/06/20 05:39:57;;;;;;;9.50;3.75;;;20.50;99.90;;;;;;4980029;28;20066;-89
2022/06/20 05:42:23;;;;;;;11.13;4.10;;;20.60;99.90;;;;;;4987837;28;20082;-90
2022/06/20 05:44:48;;;;;;;10.52;4.32;;;20.60;99.90;;;;;;4988719;28;20027;-90
2022/06/20 05:47:22;;;;;;;14.10;3.83;;;20.50;99.90;;;;;;4993061;28;20074;-89
2022/06/20 05:50:01;;;;;;;11.70;3.20;;;20.40;99.90;;;;;;4998154;28;20026;-89
2022/06/20 05:52:33;;;;;;;12.60;4.13;;;20.40;99.90;;;;;;4994064;28;20069;-86
2022/06/20 05:55:28;;;;;;;10.77;4.28;;;20.30;99.90;;;;;;4995609;28;20034;-87
2022/06/20 05:57:56;;;;;;;19.73;5.50;;;20.30;99.90;;;;;;5000869;28;20047;-86
2022/06/20 06:00:30;;;;;;;8.60;4.43;;;20.30;99.90;;;;;;5009693;28;20022;-87
2022/06/20 06:03:36;;;;;;;13.18;5.35;;;20.30;99.90;;;;;;4995005;28;20022;-89
2022/06/20 06:06:42;;;;;;;14.30;4.18;;;20.20;99.90;;;;;;4954919;28;20046;-89
2022/06/20 06:09:30;;;;;;;9.90;4.35;;;20.30;99.90;;;;;;4999327;28;20041;-91
2022/06/20 06:12:01;;;;;;;15.75;5.78;;;20.20;99.90;;;;;;4981824;28;20031;-89
2022/06/20 06:14:52;;;;;;;16.75;4.53;;;20.20;99.90;;;;;;4988619;28;20038;-88
2022/06/20 06:17:25;;;;;;;13.93;4.97;;;19.80;99.90;;;;;;4994849;28;20100;-88
2022/06/20 06:20:00;;;;;;;13.10;5.07;;;20.20;99.90;;;;;;4988616;28;20027;-90
2022/06/20 06:22:44;;;;;;;15.25;5.38;;;20.20;99.90;;;;;;5001020;28;20083;-86
2022/06/20 06:25:23;;;;;;;17.27;5.97;;;20.20;99.90;;;;;;4986428;28;20026;-88
2022/06/20 06:27:55;;;;;;;16.17;5.97;;;20.10;99.90;;;;;;4982592;28;20027;-90
2022/06/20 06:30:27;;;;;;;14.80;6.00;;;20.20;99.90;;;;;;4986415;28;20030;-90
2022/06/20 06:33:04;;;;;;;22.20;6.85;;;20.30;99.90;;;;;;4984789;28;20088;-89
2022/06/20 06:35:39;;;;;;;23.13;10.95;;;20.30;99.90;;;;;;4997936;28;20031;-92
2022/06/20 06:38:12;;;;;;;21.58;7.30;;;20.40;99.90;;;;;;4986973;28;20030;-89
2022/06/20 06:40:51;;;;;;;22.83;6.82;;;20.50;99.90;;;;;;4988998;28;20019;-89
2022/06/20 06:43:20;;;;;;;14.43;5.78;;;20.50;99.90;;;;;;4982171;28;20047;-88
2022/06/20 06:45:54;;;;;;;15.27;5.97;;;20.50;99.90;;;;;;5004521;28;20027;-87
2022/06/20 06:48:30;;;;;;;16.50;6.18;;;20.50;99.90;;;;;;4995777;28;20517;-88
2022/06/20 06:51:33;;;;;;;19.00;6.78;;;20.50;99.90;;;;;;4998911;28;20031;-88
2022/06/20 06:54:13;;;;;;;16.85;6.75;;;20.60;99.90;;;;;;4985593;28;20073;-91
2022/06/20 06:56:48;;;;;;;19.10;7.15;;;20.90;99.90;;;;;;5017123;28;20027;-90
2022/06/20 06:59:22;;;;;;;21.67;6.18;;;21.10;99.90;;;;;;5004071;28;20030;-90
2022/06/20 07:01:51;;;;;;;17.88;6.47;;;21.20;99.90;;;;;;5002202;28;20019;-88
2022/06/20 07:04:23;;;;;;;16.47;6.23;;;21.20;99.90;;;;;;5016385;28;20033;-88
2022/06/20 07:07:10;;;;;;;16.85;6.20;;;21.20;99.90;;;;;;4993515;28;20066;-88
2022/06/20 07:09:50;;;;;;;18.70;5.75;;;21.30;99.90;;;;;;4991933;28;20037;-89
2022/06/20 07:12:36;;;;;;;15.55;5.60;;;21.40;99.90;;;;;;5008863;28;20041;-88
2022/06/20 07:15:17;;;;;;;11.32;5.60;;;21.50;99.90;;;;;;4993986;28;20015;-88
2022/06/20 07:17:51;;;;;;;16.85;5.65;;;21.80;99.90;;;;;;5015077;28;20050;-90
2022/06/20 07:20:20;;;;;;;10.15;5.43;;;21.70;99.90;;;;;;5000253;28;20015;-88
2022/06/20 07:22:48;;;;;;;14.00;5.20;;;21.90;99.90;;;;;;5000662;28;20027;-90
2022/06/20 07:25:23;;;;;;;12.00;5.20;;;21.90;99.90;;;;;;5016318;28;20030;-88
2022/06/20 07:27:59;;;;;;;9.80;4.38;;;22.00;99.90;;;;;;4998847;28;20034;-88
2022/06/20 07:30:30;;;;;;;11.23;4.55;;;22.20;99.90;;;;;;4995076;28;20057;-90
2022/06/20 07:33:00;;;;;;;13.07;5.47;;;22.40;99.90;;;;;;5001598;28;20034;-88
2022/06/20 07:35:49;;;;;;;12.15;4.63;;;22.30;99.90;;;;;;5000191;28;20027;-89
2022/06/20 07:38:17;;;;;;;12.13;4.30;;;22.70;99.90;;;;;;5015532;28;20037;-90
2022/06/20 07:40:49;;;;;;;13.63;5.18;;;22.70;99.90;;;;;;5007616;28;20818;-89
2022/06/20 07:43:27;;;;;;;11.02;4.60;;;22.60;99.90;;;;;;4997218;28;20038;-89
2022/06/20 07:45:54;;;;;;;11.98;4.90;;;22.60;99.90;;;;;;4993866;28;20082;-90
2022/06/20 07:48:27;;;;;;;12.05;4.20;;;22.70;99.90;;;;;;4997608;28;20076;-90
2022/06/20 07:51:09;;;;;;;10.00;4.68;;;22.70;99.90;;;;;;4999532;28;20011;-89
2022/06/20 07:53:41;;;;;;;11.23;5.00;;;22.70;99.90;;;;;;4998612;28;20011;-91
2022/06/20 07:56:18;;;;;;;34.53;19.85;;;22.50;99.90;;;;;;5013782;28;20031;-89
2022/06/20 07:58:54;;;;;;;10.57;5.50;;;22.70;99.90;;;;;;5007311;28;20041;-87
2022/06/20 08:01:25;;;;;;;10.88;4.63;;;22.80;99.90;;;;;;5004513;28;20022;-88
2022/06/20 08:03:59;;;;;;;10.77;4.43;;;23.00;99.90;;;;;;5001102;28;20014;-88
2022/06/20 08:06:37;;;;;;;7.90;4.53;;;23.10;99.90;;;;;;5007530;28;20092;-88
2022/06/20 08:09:30;;;;;;;12.48;5.32;;;23.20;99.90;;;;;;5010008;28;20039;-90
2022/06/20 08:12:07;;;;;;;11.68;5.07;;;23.30;99.90;;;;;;4990666;28;20027;-88
2022/06/20 08:14:40;;;;;;;10.95;4.40;;;23.30;99.90;;;;;;5009049;28;20034;-88
2022/06/20 08:17:09;;;;;;;7.80;3.97;;;23.20;99.90;;;;;;4996389;28;20035;-88
2022/06/20 08:19:37;;;;;;;9.20;4.28;;;23.30;99.90;;;;;;4993954;28;20753;-87
2022/06/20 08:22:21;;;;;;;9.90;4.55;;;23.30;99.90;;;;;;5017739;28;20027;-89
2022/06/20 08:25:25;;;;;;;10.90;5.00;;;23.10;99.90;;;;;;4998763;28;20118;-88
2022/06/20 08:27:58;;;;;;;6.70;3.78;;;23.30;99.90;;;;;;5005271;28;20034;-89
2022/06/20 08:31:00;;;;;;;9.25;4.97;;;23.60;99.90;;;;;;4993312;28;20042;-88
2022/06/20 08:33:48;;;;;;;7.65;4.15;;;23.60;99.90;;;;;;4970703;28;20035;-90
2022/06/20 08:36:16;;;;;;;6.82;3.50;;;23.60;99.90;;;;;;4990841;28;20050;-89
2022/06/20 08:38:51;;;;;;;9.57;3.88;;;23.80;99.90;;;;;;5007961;28;20102;-90
2022/06/20 08:41:38;;;;;;;7.10;3.97;;;23.90;99.90;;;;;;4999442;28;20031;-87
2022/06/20 08:44:19;;;;;;;10.02;3.92;;;23.70;99.90;;;;;;4990347;28;20061;-88
2022/06/20 08:46:47;;;;;;;5.32;3.45;;;23.60;99.90;;;;;;5001956;28;20037;-89
2022/06/20 08:49:31;;;;;;;7.18;4.03;;;23.50;99.90;;;;;;4998574;28;20122;-89
2022/06/20 08:52:23;;;;;;;8.32;4.05;;;23.50;99.90;;;;;;4984211;28;20023;-87
2022/06/20 08:55:13;;;;;;;6.93;3.90;;;23.50;99.90;;;;;;4997816;28;20034;-89
2022/06/20 08:57:47;;;;;;;7.38;3.50;;;23.50;99.90;;;;;;4997829;28;20041;-89
2022/06/20 09:00:33;;;;;;;7.93;3.20;;;23.60;99.90;;;;;;4985145;28;20046;-88
2022/06/20 09:03:24;;;;;;;8.32;3.80;;;23.60;99.90;;;;;;4975971;28;20031;-88
2022/06/20 09:05:52;;;;;;;7.40;2.90;;;23.60;99.90;;;;;;4988986;28;20461;-88
2022/06/20 09:08:56;;;;;;;11.18;3.00;;;23.70;99.90;;;;;;4980570;28;20042;-89
2022/06/20 09:12:09;;;;;;;6.20;3.03;;;23.70;99.90;;;;;;5007371;28;20007;-87
2022/06/20 09:14:44;;;;;;;6.15;2.92;;;23.60;99.90;;;;;;4940067;28;20104;-89
2022/06/20 09:17:31;;;;;;;9.77;3.30;;;23.70;99.90;;;;;;5007309;28;20019;-88
2022/06/20 09:19:56;;;;;;;7.35;3.20;;;23.70;99.90;;;;;;5003284;28;20042;-89
2022/06/20 09:22:39;;;;;;;6.57;2.90;;;23.50;99.90;;;;;;4991011;28;20026;-87
2022/06/20 09:25:35;;;;;;;7.30;3.20;;;23.70;99.90;;;;;;5003075;28;20015;-88
2022/06/20 09:28:35;;;;;;;5.95;2.80;;;23.70;99.90;;;;;;4936487;28;20045;-88
2022/06/20 09:31:29;;;;;;;7.68;4.05;;;23.70;99.90;;;;;;4988221;28;20031;-88
2022/06/20 09:34:18;;;;;;;7.60;3.20;;;23.80;99.90;;;;;;4987077;28;20034;-86
2022/06/20 09:36:55;;;;;;;8.32;3.80;;;23.60;99.90;;;;;;4981433;28;20047;-90
2022/06/20 09:39:29;;;;;;;6.40;3.05;;;23.50;99.90;;;;;;5000236;28;20030;-86
2022/06/20 09:42:42;;;;;;;6.47;2.83;;;23.40;99.90;;;;;;4987974;28;20023;-89
2022/06/20 09:45:52;;;;;;;6.65;2.72;;;23.50;99.90;;;;;;4982592;28;20403;-89
2022/06/20 09:48:34;;;;;;;5.95;2.58;;;23.60;99.90;;;;;;4970331;28;20034;-87
2022/06/20 09:51:36;;;;;;;6.00;2.55;;;23.70;99.90;;;;;;4983155;28;20031;-88
2022/06/20 09:54:20;;;;;;;7.78;4.22;;;23.90;99.90;;;;;;4990290;28;20035;-88
2022/06/20 09:57:21;;;;;;;8.48;4.18;;;24.30;99.90;;;;;;4985163;28;20280;-88
2022/06/20 10:00:13;;;;;;;8.10;4.53;;;24.50;99.90;;;;;;4985615;28;20042;-89
2022/06/20 10:03:01;;;;;;;9.77;4.35;;;24.70;99.90;;;;;;4999965;28;20022;-90
2022/06/20 10:05:47;;;;;;;7.22;4.18;;;24.60;99.90;;;;;;4999461;28;20051;-87
2022/06/20 10:09:08;;;;;;;7.63;4.07;;;24.70;99.90;;;;;;4987630;28;20133;-87
2022/06/20 10:11:51;;;;;;;8.25;3.35;;;24.60;99.90;;;;;;4947094;28;20034;-87
2022/06/20 10:14:34;;;;;;;7.72;4.05;;;24.60;99.90;;;;;;4983967;28;20057;-90
2022/06/20 10:17:08;;;;;;;9.18;3.95;;;24.80;99.90;;;;;;4990728;28;20054;-89
2022/06/20 10:19:51;;;;;;;10.18;4.35;;;24.90;99.90;;;;;;5001258;28;20119;-87
2022/06/20 10:22:38;;;;;;;9.75;3.22;;;25.00;99.90;;;;;;4987190;28;20090;-88
2022/06/20 10:25:24;;;;;;;5.95;3.28;;;25.00;99.90;;;;;;4992710;28;20078;-87
2022/06/20 10:27:50;;;;;;;6.25;3.53;;;25.00;99.90;;;;;;4993093;28;20076;-88
2022/06/20 10:30:40;;;;;;;8.25;3.78;;;25.00;99.90;;;;;;4984028;28;20015;-88
2022/06/20 10:33:24;;;;;;;11.50;4.18;;;25.00;99.90;;;;;;5001369;28;20039;-88
2022/06/20 10:36:13;;;;;;;11.52;4.20;;;25.00;99.90;;;;;;4994286;28;20097;-89
2022/06/20 10:38:43;;;;;;;9.10;4.30;;;25.10;99.90;;;;;;4994819;28;20015;-90
2022/06/20 10:41:39;;;;;;;9.02;4.00;;;25.20;99.90;;;;;;5001162;28;20246;-87
2022/06/20 10:44:14;;;;;;;8.77;3.67;;;25.00;99.90;;;;;;4992292;28;20035;-88
2022/06/20 10:46:55;;;;;;;7.95;4.00;;;24.90;99.90;;;;;;4992418;28;20022;-91
2022/06/20 10:49:59;;;;;;;5.75;3.95;;;24.80;99.90;;;;;;4988881;28;20030;-88
2022/06/20 10:52:46;;;;;;;7.30;3.90;;;24.70;99.90;;;;;;5004762;28;20034;-88
2022/06/20 10:55:25;;;;;;;9.13;4.22;;;24.80;99.90;;;;;;4993794;28;20023;-87
2022/06/20 10:58:00;;;;;;;5.90;3.40;;;24.80;99.90;;;;;;4991767;28;20031;-88
2022/06/20 11:00:30;;;;;;;8.57;3.67;;;24.90;99.90;;;;;;5008537;28;19999;-88
2022/06/20 11:03:14;;;;;;;8.07;3.40;;;24.90;99.90;;;;;;5001232;28;20110;-88
2022/06/20 11:05:44;;;;;;;5.05;3.47;;;25.10;99.90;;;;;;4982482;28;20023;-88
2022/06/20 11:08:47;;;;;;;6.75;3.30;;;25.40;99.90;;;;;;4996709;28;20034;-89
2022/06/20 11:11:44;;;;;;;6.35;3.53;;;25.60;99.90;;;;;;4983589;28;20455;-89
2022/06/20 11:14:22;;;;;;;9.05;4.93;;;25.50;99.90;;;;;;4986514;28;20130;-89
2022/06/20 11:16:58;;;;;;;7.85;3.25;;;25.50;99.80;;;;;;5002625;28;20133;-88
2022/06/20 11:19:41;;;;;;;6.35;3.22;;;25.30;99.80;;;;;;5002100;28;20035;-88
2022/06/20 11:22:24;;;;;;;7.10;3.50;;;25.10;99.90;;;;;;5004314;28;20019;-88
2022/06/20 11:25:05;;;;;;;5.18;3.22;;;25.00;99.90;;;;;;4985718;28;20030;-89
2022/06/20 11:27:58;;;;;;;4.60;2.95;;;24.90;99.90;;;;;;4983071;28;20019;-89
2022/06/20 11:30:37;;;;;;;6.25;3.38;;;24.70;99.90;;;;;;4984495;28;20026;-87
2022/06/20 11:33:21;;;;;;;9.15;3.63;;;24.60;99.90;;;;;;4998118;28;20030;-89
2022/06/20 11:35:54;;;;;;;5.70;3.30;;;24.60;99.90;;;;;;5001043;28;20035;-87
2022/06/20 11:38:29;;;;;;;5.88;3.08;;;24.60;99.90;;;;;;5001200;28;20461;-88
2022/06/20 11:40:57;;;;;;;5.03;2.95;;;24.60;99.90;;;;;;5002969;28;20050;-89
2022/06/20 11:43:26;;;;;;;6.05;3.22;;;24.70;99.90;;;;;;4999915;28;20043;-89
2022/06/20 11:46:14;;;;;;;7.38;3.25;;;24.80;99.90;;;;;;4989396;28;20031;-88
2022/06/20 11:49:04;;;;;;;7.45;3.30;;;24.70;99.90;;;;;;5001364;28;20030;-88
2022/06/20 11:51:57;;;;;;;6.28;3.38;;;24.50;99.90;;;;;;4997180;28;20031;-89
2022/06/20 11:54:53;;;;;;;6.53;3.10;;;24.60;99.90;;;;;;4975173;28;20062;-89
2022/06/20 11:57:39;;;;;;;5.95;3.03;;;24.90;99.90;;;;;;4984761;28;20026;-87
2022/06/20 12:00:35;;;;;;;5.72;3.42;;;25.00;99.90;;;;;;5004601;28;20015;-88
2022/06/20 12:03:16;;;;;;;5.15;3.40;;;24.90;99.90;;;;;;4986552;28;20035;-87
2022/06/20 12:06:10;;;;;;;5.80;3.40;;;25.20;99.50;;;;;;4983347;28;20501;-87
2022/06/20 12:08:43;;;;;;;7.47;3.55;;;25.40;98.70;;;;;;4998838;28;20038;-88
2022/06/20 12:11:41;;;;;;;4.65;3.25;;;25.20;99.20;;;;;;4985250;28;20038;-89
2022/06/20 12:14:42;;;;;;;6.43;3.50;;;25.30;98.90;;;;;;5001200;28;20043;-86
2022/06/20 12:17:20;;;;;;;5.15;3.45;;;25.30;98.70;;;;;;4988440;28;20035;-86
2022/06/20 12:25:44;;;;;;;7.68;4.45;;;25.50;98.50;;;;;;4997177;28;20039;-87
2022/06/20 12:28:33;;;;;;;8.40;4.50;;;25.80;98.00;;;;;;4999342;28;20153;-87
2022/06/20 12:31:08;;;;;;;7.07;4.32;;;25.80;97.40;;;;;;4998805;28;20022;-86
2022/06/20 12:33:40;;;;;;;6.63;3.90;;;25.80;97.00;;;;;;5000889;28;20042;-86
2022/06/20 12:36:18;;;;;;;5.68;4.40;;;25.70;97.20;;;;;;4989458;28;20023;-86
2022/06/20 12:38:59;;;;;;;7.07;4.30;;;25.80;97.10;;;;;;4967178;28;20038;-86
2022/06/20 12:41:28;;;;;;;5.93;4.20;;;25.70;96.90;;;;;;4979003;28;20097;-85
2022/06/20 12:44:06;;;;;;;6.85;4.55;;;25.70;96.80;;;;;;5005480;28;20042;-87
2022/06/20 12:46:54;;;;;;;5.72;4.38;;;25.60;96.90;;;;;;4999941;28;20037;-85
2022/06/20 12:49:38;;;;;;;6.93;4.45;;;25.50;97.40;;;;;;4997951;28;20397;-85
2022/06/20 12:52:17;;;;;;;7.38;4.10;;;25.40;97.30;;;;;;4979840;28;20030;-86
2022/06/20 12:55:04;;;;;;;6.17;4.23;;;25.30;97.50;;;;;;4983678;28;20035;-88
2022/06/20 12:57:39;;;;;;;7.90;4.75;;;25.10;97.70;;;;;;4984353;28;20037;-86
2022/06/20 13:00:18;;;;;;;11.90;8.30;;;25.20;97.90;;;;;;4982887;28;20027;-87
2022/06/20 13:03:05;;;;;;;5.65;4.00;;;25.20;97.80;;;;;;4983570;28;20031;-89
2022/06/20 13:05:56;;;;;;;5.75;3.60;;;25.30;97.50;;;;;;4983210;28;20401;-86
2022/06/20 13:08:58;;;;;;;5.13;3.63;;;25.30;97.20;;;;;;4998693;28;20030;-87
2022/06/20 13:11:39;;;;;;;6.68;4.32;;;25.40;97.10;;;;;;4999779;28;20045;-86
2022/06/20 13:14:14;;;;;;;7.43;4.40;;;25.50;97.30;;;;;;4988957;28;20019;-85
2022/06/20 13:17:06;;;;;;;4.78;3.47;;;25.50;97.30;;;;;;4984710;28;20034;-85
2022/06/20 13:19:53;;;;;;;6.70;4.38;;;25.50;97.20;;;;;;4981451;28;20037;-86
2022/06/20 13:22:36;;;;;;;7.63;4.07;;;25.70;97.00;;;;;;4983466;28;20030;-86
2022/06/20 13:25:23;;;;;;;7.13;3.90;;;26.10;96.40;;;;;;4983013;28;20035;-85
2022/06/20 13:27:56;;;;;;;5.40;3.60;;;26.10;95.80;;;;;;4996569;28;20022;-85
2022/06/20 13:30:43;;;;;;;8.98;4.25;;;26.20;95.90;;;;;;4998442;28;20103;-86
2022/06/20 13:33:17;;;;;;;6.40;4.22;;;26.20;95.30;;;;;;5003101;28;20034;-85
2022/06/20 13:35:56;;;;;;;6.95;4.22;;;26.20;95.70;;;;;;4978748;28;20030;-85
2022/06/20 13:38:47;;;;;;;7.60;3.70;;;26.20;95.30;;;;;;4999319;28;20089;-86
2022/06/20 13:41:40;;;;;;;8.02;3.50;;;26.10;95.30;;;;;;4998799;28;20086;-85
2022/06/20 13:44:34;;;;;;;4.95;3.60;;;26.10;95.30;;;;;;4983641;28;20046;-86
2022/06/20 13:47:30;;;;;;;7.47;4.70;;;26.00;95.10;;;;;;4997241;28;20019;-87
2022/06/20 13:50:11;;;;;;;6.95;4.05;;;25.80;95.30;;;;;;4986592;28;20038;-86
2022/06/20 13:52:57;;;;;;;5.32;3.13;;;25.90;95.60;;;;;;4986206;28;20058;-87